Time;durP1;ratioP1;P1;durP2;ratioP2;P2;SDS_P1;SDS_P2;PMS_P1;PMS_P2;Temp;Humidity;BMP_temperature;BMP_pressure;BME280_temperature;BME280_humidity;BME280_pressure;Samples;Min_cycle;Max_cycle;Signal;HPM_P1;HPM_P2
2022/03/24 00:01:21;;;;;;;;;;;11.00;99.90;;;;;;5024528;28;19917;-82
2022/03/24 00:03:46;;;;;;;;;;;10.90;99.90;;;;;;5041848;28;19909;-84
2022/03/24 00:06:15;;;;;;;;;;;10.80;99.90;;;;;;5034003;28;20318;-82
2022/03/24 00:08:40;;;;;;;;;;;10.80;99.90;;;;;;5023355;28;19916;-79
2022/03/24 00:11:06;;;;;;;;;;;10.70;99.90;;;;;;5040407;28;19913;-82
2022/03/24 00:13:31;;;;;;;;;;;10.70;99.90;;;;;;5040396;28;20416;-82
2022/03/24 00:15:57;;;;;;;;;;;10.60;99.90;;;;;;5042568;28;19909;-81
2022/03/24 00:18:23;;;;;;;;;;;10.50;99.90;;;;;;5042290;28;19921;-82
2022/03/24 00:20:48;;;;;;;;;;;10.50;99.90;;;;;;5042560;28;19909;-83
2022/03/24 00:23:14;;;;;;;;;;;10.50;99.90;;;;;;5040029;28;19932;-79
2022/03/24 00:25:39;;;;;;;;;;;10.40;99.90;;;;;;5017749;28;19909;-79
2022/03/24 00:28:06;;;;;;;;;;;10.40;99.90;;;;;;5036677;28;20324;-80
2022/03/24 00:30:31;;;;;;;;;;;10.40;99.90;;;;;;5030410;28;19913;-80
2022/03/24 00:32:57;;;;;;;;;;;10.30;99.90;;;;;;5035754;28;20004;-81
2022/03/24 00:35:24;;;;;;;;;;;10.30;99.90;;;;;;5038744;28;19921;-80
2022/03/24 00:37:50;;;;;;;;;;;10.20;99.90;;;;;;5021823;28;19913;-84
2022/03/24 00:40:17;;;;;;;;;;;10.20;99.90;;;;;;5037720;28;19920;-84
2022/03/24 00:42:43;;;;;;;;;;;10.10;99.90;;;;;;5027870;28;19913;-83
2022/03/24 00:45:12;;;;;;;;;;;10.00;99.90;;;;;;5032450;28;19910;-81
2022/03/24 00:47:42;;;;;;;;;;;10.00;99.90;;;;;;5040553;28;19909;-82
2022/03/24 00:50:08;;;;;;;;;;;10.00;99.90;;;;;;5031665;28;19919;-79
2022/03/24 00:52:34;;;;;;;;;;;9.90;99.90;;;;;;5036334;28;20316;-81
2022/03/24 00:55:00;;;;;;;;;;;9.90;99.90;;;;;;5018156;28;19913;-80
2022/03/24 00:57:25;;;;;;;;;;;9.80;99.90;;;;;;5035611;28;19977;-83
2022/03/24 00:59:51;;;;;;;;;;;9.80;99.90;;;;;;5031677;28;20019;-82
2022/03/24 01:02:17;;;;;;;;;;;9.90;99.90;;;;;;5028704;28;19913;-81
2022/03/24 01:04:42;;;;;;;;;;;9.90;99.90;;;;;;5031961;28;19921;-79
2022/03/24 01:07:08;;;;;;;;;;;9.90;99.90;;;;;;5018191;28;19926;-79
2022/03/24 01:09:33;;;;;;;;;;;9.90;99.90;;;;;;5035352;28;20408;-83
2022/03/24 01:11:59;;;;;;;;;;;9.90;99.90;;;;;;5034925;28;19913;-81
2022/03/24 01:14:25;;;;;;;;;;;9.80;99.90;;;;;;5030317;28;19966;-81
2022/03/24 01:16:51;;;;;;;;;;;9.80;99.90;;;;;;5027551;28;19913;-81
2022/03/24 01:19:16;;;;;;;;;;;9.70;99.90;;;;;;5030603;28;19914;-81
2022/03/24 01:21:42;;;;;;;;;;;9.70;99.90;;;;;;5038768;28;19913;-80
2022/03/24 01:24:08;;;;;;;;;;;9.60;99.90;;;;;;5037451;28;19913;-82
2022/03/24 01:26:35;;;;;;;;;;;9.60;99.90;;;;;;5009682;28;19917;-84
2022/03/24 01:29:00;;;;;;;;;;;9.60;99.90;;;;;;5039385;28;19921;-82
2022/03/24 01:31:26;;;;;;;;;;;9.60;99.90;;;;;;5032527;28;19925;-81
2022/03/24 01:33:51;;;;;;;;;;;9.50;99.90;;;;;;5030585;28;19952;-79
2022/03/24 01:36:18;;;;;;;;;;;9.40;99.90;;;;;;5028104;28;19958;-80
2022/03/24 01:38:43;;;;;;;;;;;9.40;99.90;;;;;;5018501;28;19913;-81
2022/03/24 01:41:09;;;;;;;;;;;9.40;99.90;;;;;;5022461;28;20008;-80
2022/03/24 01:43:35;;;;;;;;;;;9.30;99.90;;;;;;5008479;28;20526;-83
2022/03/24 01:46:01;;;;;;;;;;;9.30;99.90;;;;;;5021132;28;20293;-79
2022/03/24 01:48:26;;;;;;;;;;;9.30;99.90;;;;;;5023907;28;19913;-80
2022/03/24 01:50:52;;;;;;;;;;;9.30;99.90;;;;;;5023837;28;19924;-80
2022/03/24 01:53:18;;;;;;;;;;;9.20;99.90;;;;;;5027217;28;19917;-81
2022/03/24 01:55:44;;;;;;;;;;;9.20;99.90;;;;;;5000778;28;19921;-79
2022/03/24 01:58:11;;;;;;;;;;;9.20;99.90;;;;;;5027970;28;19952;-78
2022/03/24 02:00:37;;;;;;;;;;;9.10;99.90;;;;;;5030464;28;19920;-81
2022/03/24 02:03:04;;;;;;;;;;;9.10;99.90;;;;;;5006468;28;20007;-82
2022/03/24 02:05:33;;;;;;;;;;;9.10;99.90;;;;;;5024606;28;19913;-79
2022/03/24 02:08:03;;;;;;;;;;;9.00;99.90;;;;;;5025774;28;19920;-81
2022/03/24 02:10:32;;;;;;;;;;;9.00;99.90;;;;;;5008754;28;19920;-80
2022/03/24 02:12:58;;;;;;;;;;;8.90;99.90;;;;;;5031236;28;20354;-81
2022/03/24 02:15:24;;;;;;;;;;;8.90;99.90;;;;;;5037875;28;19924;-81
2022/03/24 02:17:52;;;;;;;;;;;8.80;99.90;;;;;;5028986;28;19913;-80
2022/03/24 02:20:18;;;;;;;;;;;8.80;99.90;;;;;;5025659;28;19936;-80
2022/03/24 02:22:44;;;;;;;;;;;8.80;99.90;;;;;;5037640;28;19921;-82
2022/03/24 02:25:10;;;;;;;;;;;8.70;99.90;;;;;;5037943;28;19959;-80
2022/03/24 02:27:36;;;;;;;;;;;8.80;99.90;;;;;;5040722;28;19920;-82
2022/03/24 02:30:03;;;;;;;;;;;8.70;99.90;;;;;;5033782;28;19917;-82
2022/03/24 02:32:29;;;;;;;;;;;8.70;99.90;;;;;;5022490;28;19921;-82
2022/03/24 02:34:55;;;;;;;;;;;8.70;99.90;;;;;;5038688;28;19917;-82
2022/03/24 02:37:22;;;;;;;;;;;8.70;99.90;;;;;;5040843;28;19970;-81
2022/03/24 02:39:51;;;;;;;;;;;8.70;99.90;;;;;;5038526;28;19959;-79
2022/03/24 02:42:19;;;;;;;;;;;8.60;99.90;;;;;;5034780;28;19957;-81
2022/03/24 02:44:46;;;;;;;;;;;8.60;99.90;;;;;;5018260;28;19913;-83
2022/03/24 02:47:12;;;;;;;;;;;8.60;99.90;;;;;;5038598;28;19960;-82
2022/03/24 02:49:38;;;;;;;;;;;8.60;99.90;;;;;;5038274;28;20266;-84
2022/03/24 02:52:04;;;;;;;;;;;8.60;99.90;;;;;;5039811;28;20011;-81
2022/03/24 02:54:30;;;;;;;;;;;8.60;99.90;;;;;;5037546;28;19990;-80
2022/03/24 02:56:56;;;;;;;;;;;8.50;99.90;;;;;;5031960;28;19921;-80
2022/03/24 02:59:21;;;;;;;;;;;8.50;99.90;;;;;;5036224;28;19913;-82
2022/03/24 03:01:54;;;;;;;;;;;8.50;99.90;;;;;;5037970;28;19949;-82
2022/03/24 03:04:20;;;;;;;;;;;8.50;99.90;;;;;;5031477;28;19920;-80
2022/03/24 03:06:45;;;;;;;;;;;8.50;99.90;;;;;;5020810;28;19914;-81
2022/03/24 03:09:14;;;;;;;;;;;8.40;99.90;;;;;;5036704;28;19920;-81
2022/03/24 03:11:40;;;;;;;;;;;8.40;99.90;;;;;;5036510;28;19995;-82
2022/03/24 03:14:06;;;;;;;;;;;8.40;99.90;;;;;;5014765;28;19948;-82
2022/03/24 03:16:31;;;;;;;;;;;8.40;99.90;;;;;;5037402;28;19913;-82
2022/03/24 03:18:57;;;;;;;;;;;8.40;99.90;;;;;;5019009;28;19954;-82
2022/03/24 03:21:22;;;;;;;;;;;8.40;99.90;;;;;;5037503;28;19920;-80
2022/03/24 03:23:48;;;;;;;;;;;8.40;99.90;;;;;;5037775;28;19936;-81
2022/03/24 03:26:17;;;;;;;;;;;8.40;99.90;;;;;;5037631;28;19917;-81
2022/03/24 03:28:44;;;;;;;;;;;8.40;99.90;;;;;;5038967;28;19924;-81
2022/03/24 03:31:10;;;;;;;;;;;8.40;99.90;;;;;;5029902;28;20408;-80
2022/03/24 03:33:36;;;;;;;;;;;8.40;99.90;;;;;;5041869;28;19917;-81
2022/03/24 03:36:02;;;;;;;;;;;8.30;99.90;;;;;;5037832;28;19928;-79
2022/03/24 03:38:27;;;;;;;;;;;8.30;99.90;;;;;;5042784;28;19936;-81
2022/03/24 03:40:53;;;;;;;;;;;8.30;99.90;;;;;;5022714;28;19924;-84
2022/03/24 03:43:19;;;;;;;;;;;8.20;99.90;;;;;;5041057;28;19920;-81
2022/03/24 03:45:44;;;;;;;;;;;8.20;99.90;;;;;;5016823;28;19921;-82
2022/03/24 03:48:10;;;;;;;;;;;8.10;99.90;;;;;;5041259;28;19955;-79
2022/03/24 03:50:36;;;;;;;;;;;8.10;99.90;;;;;;5039716;28;19920;-81
2022/03/24 03:53:02;;;;;;;;;;;8.10;99.90;;;;;;5036335;28;19921;-80
2022/03/24 03:55:27;;;;;;;;;;;8.00;99.90;;;;;;5040196;28;20149;-78
2022/03/24 03:57:53;;;;;;;;;;;8.00;99.90;;;;;;5041455;28;19917;-82
2022/03/24 04:03:03;;;;;;;;;;;7.90;99.90;;;;;;5039406;28;19929;-81
2022/03/24 04:05:38;;;;;;;;;;;7.90;99.90;;;;;;5041046;28;20008;-81
2022/03/24 04:08:04;;;;;;;;;;;7.90;99.90;;;;;;5040146;28;19928;-81
2022/03/24 04:10:30;;;;;;;;;;;7.90;99.90;;;;;;5041280;28;19913;-82
2022/03/24 04:12:57;;;;;;;;;;;7.80;99.90;;;;;;5037607;28;19917;-81
2022/03/24 04:15:23;;;;;;;;;;;7.80;99.90;;;;;;5040245;28;19920;-79
2022/03/24 04:17:50;;;;;;;;;;;7.70;99.90;;;;;;5020849;28;20613;-81
2022/03/24 04:20:20;;;;;;;;;;;7.70;99.90;;;;;;5037877;28;19914;-83
2022/03/24 04:22:50;;;;;;;;;;;7.60;99.90;;;;;;5035608;28;19914;-80
2022/03/24 04:25:16;;;;;;;;;;;7.60;99.90;;;;;;5035319;28;19967;-82
2022/03/24 04:27:41;;;;;;;;;;;7.60;99.90;;;;;;5038333;28;20011;-80
2022/03/24 04:30:08;;;;;;;;;;;7.50;99.90;;;;;;5037413;28;19939;-80
2022/03/24 04:32:33;;;;;;;;;;;7.50;99.90;;;;;;5036388;28;19917;-81
2022/03/24 04:34:58;;;;;;;;;;;7.50;99.90;;;;;;5036655;28;19913;-80
2022/03/24 04:37:25;;;;;;;;;;;7.40;99.90;;;;;;5031531;28;19913;-80
2022/03/24 04:39:51;;;;;;;;;;;7.40;99.90;;;;;;5035592;28;19913;-82
2022/03/24 04:42:17;;;;;;;;;;;7.30;99.90;;;;;;5032591;28;20385;-78
2022/03/24 04:44:42;;;;;;;;;;;7.30;99.90;;;;;;5035738;28;19958;-80
2022/03/24 04:47:08;;;;;;;;;;;7.30;99.90;;;;;;5032920;28;19925;-79
2022/03/24 04:49:33;;;;;;;;;;;7.30;99.90;;;;;;5034318;28;19917;-80
2022/03/24 04:51:59;;;;;;;;;;;7.30;99.90;;;;;;5031843;28;19913;-80
2022/03/24 04:54:24;;;;;;;;;;;7.30;99.90;;;;;;5028458;28;20012;-80
2022/03/24 04:56:50;;;;;;;;;;;7.20;99.90;;;;;;5015444;28;19913;-80
2022/03/24 04:59:16;;;;;;;;;;;7.20;99.90;;;;;;5033093;28;20008;-80
2022/03/24 05:01:41;;;;;;;;;;;7.20;99.90;;;;;;5013318;28;20325;-79
2022/03/24 05:04:07;;;;;;;;;;;7.20;99.90;;;;;;5030641;28;19917;-81
2022/03/24 05:06:33;;;;;;;;;;;7.20;99.90;;;;;;5032731;28;19952;-79
2022/03/24 05:08:59;;;;;;;;;;;7.10;99.90;;;;;;5013672;28;20258;-80
2022/03/24 05:11:24;;;;;;;;;;;7.10;99.90;;;;;;5033699;28;19914;-81
2022/03/24 05:13:51;;;;;;;;;;;7.10;99.90;;;;;;5032980;28;20387;-80
2022/03/24 05:16:18;;;;;;;;;;;7.10;99.90;;;;;;5014470;28;19914;-81
2022/03/24 05:18:43;;;;;;;;;;;7.00;99.90;;;;;;5033512;28;19937;-80
2022/03/24 05:21:09;;;;;;;;;;;7.00;99.90;;;;;;5031050;28;19928;-81
2022/03/24 05:23:34;;;;;;;;;;;6.90;99.90;;;;;;5033379;28;19913;-80
2022/03/24 05:26:00;;;;;;;;;;;6.90;99.90;;;;;;5036930;28;19913;-82
2022/03/24 05:28:25;;;;;;;;;;;7.00;99.90;;;;;;5040060;28;19917;-83
2022/03/24 05:30:51;;;;;;;;;;;7.10;99.90;;;;;;5039537;28;19920;-82
2022/03/24 05:33:16;;;;;;;;;;;7.10;99.90;;;;;;5035239;28;19917;-83
2022/03/24 05:35:42;;;;;;;;;;;7.20;99.90;;;;;;5039786;28;19920;-80
2022/03/24 05:38:07;;;;;;;;;;;7.20;99.90;;;;;;5019972;28;19978;-80
2022/03/24 05:40:34;;;;;;;;;;;7.20;99.90;;;;;;5020497;28;20415;-81
2022/03/24 05:43:00;;;;;;;;;;;7.20;99.90;;;;;;5035728;28;19913;-80
2022/03/24 05:45:25;;;;;;;;;;;7.20;99.90;;;;;;5037029;28;19914;-82
2022/03/24 05:47:51;;;;;;;;;;;7.30;99.90;;;;;;5035498;28;19913;-83
2022/03/24 05:50:17;;;;;;;;;;;7.40;99.90;;;;;;5035078;28;19963;-80
2022/03/24 05:52:43;;;;;;;;;;;7.70;99.90;;;;;;5036510;28;19975;-80
2022/03/24 05:55:09;;;;;;;;;;;8.10;99.90;;;;;;5036084;28;19921;-79
2022/03/24 05:57:34;;;;;;;;;;;8.30;99.90;;;;;;5037371;28;20370;-80
2022/03/24 06:00:01;;;;;;;;;;;8.40;99.90;;;;;;5033333;28;19917;-78
2022/03/24 06:02:26;;;;;;;;;;;8.60;99.90;;;;;;5035165;28;19913;-79
2022/03/24 06:04:52;;;;;;;;;;;9.00;99.90;;;;;;5033989;28;20361;-78
2022/03/24 06:07:18;;;;;;;;;;;10.40;99.90;;;;;;5026754;28;19917;-80
2022/03/24 06:09:45;;;;;;;;;;;12.00;99.90;;;;;;5031061;28;20404;-80
2022/03/24 06:12:12;;;;;;;;;;;13.30;99.90;;;;;;5036106;28;19909;-79
2022/03/24 06:14:38;;;;;;;;;;;14.60;99.90;;;;;;5037857;28;19917;-81
2022/03/24 06:17:04;;;;;;;;;;;15.80;99.90;;;;;;5038856;28;20000;-80
2022/03/24 06:19:29;;;;;;;;;;;16.90;99.90;;;;;;5038184;28;19913;-80
2022/03/24 06:21:55;;;;;;;;;;;17.90;99.90;;;;;;5039999;28;19920;-81
2022/03/24 06:24:21;;;;;;;;;;;18.90;99.90;;;;;;5031251;28;19936;-82
2022/03/24 06:26:47;;;;;;;;;;;19.80;99.90;;;;;;5031007;28;19909;-81
2022/03/24 06:29:13;;;;;;;;;;;20.60;99.90;;;;;;5039925;28;19936;-81
2022/03/24 06:31:39;;;;;;;;;;;21.30;99.90;;;;;;5038996;28;20362;-82
2022/03/24 06:34:04;;;;;;;;;;;22.10;99.90;;;;;;5038371;28;19957;-78
2022/03/24 06:36:30;;;;;;;;;;;22.90;99.90;;;;;;5032828;28;19913;-82
2022/03/24 06:38:55;;;;;;;;;;;23.90;99.90;;;;;;5042272;28;19913;-79
2022/03/24 06:41:22;;;;;;;;;;;24.80;99.90;;;;;;5035009;28;19932;-81
2022/03/24 06:43:48;;;;;;;;;;;25.60;99.90;;;;;;5017201;28;19963;-80
2022/03/24 06:46:14;;;;;;;;;;;26.30;99.90;;;;;;5030906;28;19917;-82
2022/03/24 06:48:40;;;;;;;;;;;27.00;99.90;;;;;;5025411;28;19914;-79
2022/03/24 06:51:05;;;;;;;;;;;27.90;99.90;;;;;;5024560;28;19913;-81
2022/03/24 06:53:31;;;;;;;;;;;28.60;99.90;;;;;;5038512;28;20342;-80
2022/03/24 06:55:57;;;;;;;;;;;29.50;99.90;;;;;;5022052;28;19913;-82
2022/03/24 06:58:22;;;;;;;;;;;30.20;99.90;;;;;;5024109;28;19909;-82
2022/03/24 07:00:48;;;;;;;;;;;30.50;99.90;;;;;;5025202;28;19909;-82
2022/03/24 07:03:13;;;;;;;;;;;31.10;99.90;;;;;;5041801;28;19939;-81
2022/03/24 07:05:39;;;;;;;;;;;31.60;99.90;;;;;;5041573;28;19913;-82
2022/03/24 07:08:04;;;;;;;;;;;32.30;99.90;;;;;;5041752;28;19913;-82
2022/03/24 07:10:31;;;;;;;;;;;32.70;99.90;;;;;;5043010;28;19917;-80
2022/03/24 07:12:56;;;;;;;;;;;33.40;99.90;;;;;;5025879;28;20008;-83
2022/03/24 07:15:23;;;;;;;;;;;33.90;99.90;;;;;;5039298;28;20075;-84
2022/03/24 07:17:48;;;;;;;;;;;34.30;99.90;;;;;;5043250;28;19909;-83
2022/03/24 07:20:14;;;;;;;;;;;34.80;99.90;;;;;;5041563;28;19920;-81
2022/03/24 07:22:39;;;;;;;;;;;35.20;99.90;;;;;;5041727;28;20348;-81
2022/03/24 07:25:09;;;;;;;;;;;35.60;99.90;;;;;;5038025;28;19920;-82
2022/03/24 07:27:35;;;;;;;;;;;36.00;99.90;;;;;;5017451;28;19917;-83
2022/03/24 07:30:02;;;;;;;;;;;36.30;99.90;;;;;;5034712;28;19913;-84
2022/03/24 07:32:27;;;;;;;;;;;36.60;99.90;;;;;;5034327;28;20425;-82
2022/03/24 07:34:53;;;;;;;;;;;36.90;99.90;;;;;;5033627;28;19999;-82
2022/03/24 07:37:18;;;;;;;;;;;37.00;99.90;;;;;;5034070;28;19987;-82
2022/03/24 07:39:44;;;;;;;;;;;37.30;99.90;;;;;;5034536;28;19920;-82
2022/03/24 07:42:09;;;;;;;;;;;37.50;99.90;;;;;;5033115;28;19984;-84
2022/03/24 07:44:35;;;;;;;;;;;37.70;99.90;;;;;;5033283;28;19968;-79
2022/03/24 07:47:00;;;;;;;;;;;38.00;99.90;;;;;;5031814;28;19917;-84
2022/03/24 07:49:26;;;;;;;;;;;38.30;99.90;;;;;;5034541;28;19913;-84
2022/03/24 07:51:51;;;;;;;;;;;38.10;99.90;;;;;;5032478;28;19913;-84
2022/03/24 07:54:30;;;;;;;;;;;38.20;99.90;;;;;;5029546;28;19956;-83
2022/03/24 07:56:55;;;;;;;;;;;38.40;99.90;;;;;;5032372;28;19913;-84
2022/03/24 07:59:21;;;;;;;;;;;38.40;99.90;;;;;;5030910;28;20400;-82
2022/03/24 08:01:47;;;;;;;;;;;38.70;99.90;;;;;;5021030;28;20239;-81
2022/03/24 08:04:12;;;;;;;;;;;38.80;99.90;;;;;;5019995;28;20008;-83
2022/03/24 08:06:39;;;;;;;;;;;38.80;99.90;;;;;;5010975;28;19913;-82
2022/03/24 08:09:04;;;;;;;;;;;39.10;99.90;;;;;;5025083;28;20000;-83
2022/03/24 08:11:30;;;;;;;;;;;39.20;99.90;;;;;;5021084;28;19956;-82
2022/03/24 08:13:56;;;;;;;;;;;39.50;99.90;;;;;;5026752;28;20448;-81
2022/03/24 08:16:23;;;;;;;;;;;39.80;99.90;;;;;;5029765;28;19914;-80
2022/03/24 08:18:48;;;;;;;;;;;40.00;99.90;;;;;;5017864;28;20346;-82
2022/03/24 08:21:14;;;;;;;;;;;40.30;99.90;;;;;;5034149;28;20004;-81
2022/03/24 08:23:39;;;;;;;;;;;40.30;99.90;;;;;;5020517;28;19923;-81
2022/03/24 08:26:05;;;;;;;;;;;40.40;99.90;;;;;;5026904;28;19921;-82
2022/03/24 08:28:31;;;;;;;;;;;40.50;99.90;;;;;;5028811;28;19918;-82
2022/03/24 08:30:56;;;;;;;;;;;40.40;99.90;;;;;;5034876;28;21066;-83
2022/03/24 08:33:22;;;;;;;;;;;40.60;99.90;;;;;;5020024;28;19916;-79
2022/03/24 08:35:47;;;;;;;;;;;40.80;99.90;;;;;;5038422;28;19968;-82
2022/03/24 08:38:13;;;;;;;;;;;41.00;99.90;;;;;;5018328;28;19921;-80
2022/03/24 08:40:38;;;;;;;;;;;41.30;99.90;;;;;;5035782;28;19913;-81
2022/03/24 08:43:04;;;;;;;;;;;41.50;99.90;;;;;;5033637;28;19924;-81
2022/03/24 08:45:30;;;;;;;;;;;41.40;99.90;;;;;;5032677;28;19920;-81
2022/03/24 08:47:55;;;;;;;;;;;41.50;99.90;;;;;;5034518;28;19956;-81
2022/03/24 08:50:21;;;;;;;;;;;41.60;99.90;;;;;;5035316;28;20306;-81
2022/03/24 08:52:48;;;;;;;;;;;41.80;99.90;;;;;;5035031;28;19935;-81
2022/03/24 08:55:14;;;;;;;;;;;42.00;99.90;;;;;;5033729;28;19929;-80
2022/03/24 08:57:40;;;;;;;;;;;42.10;99.90;;;;;;5033279;28;19913;-81
2022/03/24 09:00:12;;;;;;;;;;;42.30;99.90;;;;;;5032238;28;19945;-82
2022/03/24 09:02:39;;;;;;;;;;;42.50;99.90;;;;;;5031385;28;19913;-81
2022/03/24 09:05:05;;;;;;;;;;;42.50;99.90;;;;;;5032904;28;19913;-82
2022/03/24 09:07:31;;;;;;;;;;;42.60;99.90;;;;;;5034385;28;19924;-81
2022/03/24 09:09:56;;;;;;;;;;;42.60;99.90;;;;;;5035372;28;20000;-81
2022/03/24 09:12:22;;;;;;;;;;;42.70;99.90;;;;;;5033540;28;19914;-81
2022/03/24 09:14:47;;;;;;;;;;;43.00;99.90;;;;;;5035036;28;19919;-81
2022/03/24 09:17:13;;;;;;;;;;;43.00;99.90;;;;;;5034019;28;20932;-82
2022/03/24 09:19:38;;;;;;;;;;;42.90;99.90;;;;;;5035314;28;19967;-82
2022/03/24 09:22:05;;;;;;;;;;;42.80;99.90;;;;;;5018311;28;19913;-82
2022/03/24 09:24:31;;;;;;;;;;;42.80;99.90;;;;;;5037324;28;19928;-83
2022/03/24 09:26:56;;;;;;;;;;;42.60;99.90;;;;;;5035558;28;19913;-83
2022/03/24 09:29:22;;;;;;;;;;;42.60;99.90;;;;;;5034542;28;19914;-82
2022/03/24 09:31:48;;;;;;;;;;;42.60;99.90;;;;;;5031830;28;19917;-83
2022/03/24 09:34:13;;;;;;;;;;;42.60;99.90;;;;;;5032217;28;19928;-82
2022/03/24 09:36:39;;;;;;;;;;;42.60;99.90;;;;;;5020161;28;19917;-82
2022/03/24 09:39:05;;;;;;;;;;;42.70;99.90;;;;;;5031987;28;19913;-82
2022/03/24 09:41:31;;;;;;;;;;;42.80;99.90;;;;;;5020628;28;19923;-82
2022/03/24 09:43:58;;;;;;;;;;;42.70;99.90;;;;;;5038111;28;19913;-82
2022/03/24 09:46:26;;;;;;;;;;;42.60;99.90;;;;;;5035334;28;19917;-82
2022/03/24 09:48:52;;;;;;;;;;;42.50;99.90;;;;;;5030756;28;19914;-81
2022/03/24 09:51:18;;;;;;;;;;;42.40;99.90;;;;;;5032968;28;19944;-81
2022/03/24 09:53:43;;;;;;;;;;;42.30;99.90;;;;;;5030815;28;19922;-81
2022/03/24 09:56:09;;;;;;;;;;;42.30;99.90;;;;;;5033641;28;19910;-83
2022/03/24 09:58:34;;;;;;;;;;;41.90;99.90;;;;;;5044092;28;19944;-82
2022/03/24 10:01:00;;;;;;;;;;;42.20;99.90;;;;;;5041620;28;19968;-82
2022/03/24 10:03:26;;;;;;;;;;;42.40;99.90;;;;;;5033796;28;19963;-83
2022/03/24 10:05:54;;;;;;;;;;;42.60;99.90;;;;;;5035603;28;19913;-83
2022/03/24 10:08:20;;;;;;;;;;;42.60;99.90;;;;;;5034721;28;19996;-80
2022/03/24 10:10:45;;;;;;;;;;;42.70;99.90;;;;;;5018294;28;19975;-84
2022/03/24 10:13:11;;;;;;;;;;;42.80;99.90;;;;;;5034003;28;19996;-83
2022/03/24 10:15:39;;;;;;;;;;;43.00;99.90;;;;;;5036504;28;20408;-80
2022/03/24 10:18:05;;;;;;;;;;;42.80;99.90;;;;;;5034509;28;19913;-82
2022/03/24 10:20:30;;;;;;;;;;;42.50;99.90;;;;;;5036305;28;19913;-84
2022/03/24 10:23:00;;;;;;;;;;;42.40;99.90;;;;;;5035348;28;19967;-83
2022/03/24 10:25:31;;;;;;;;;;;42.30;99.90;;;;;;5036708;28;19913;-83
2022/03/24 10:28:10;;;;;;;;;;;42.30;99.90;;;;;;5062464;22;19973;-85
2022/03/24 10:30:55;;;;;;;;;;;42.10;99.90;;;;;;5083293;28;20003;-83
2022/03/24 10:33:27;;;;;;;;;;;42.00;99.90;;;;;;5073260;28;19931;-84
2022/03/24 10:36:09;;;;;;;;;;;41.80;99.90;;;;;;5074945;28;19915;-84
2022/03/24 10:39:05;;;;;;;;;;;41.80;99.90;;;;;;5061040;28;20350;-83
2022/03/24 10:41:35;;;;;;;;;;;42.00;99.90;;;;;;5044953;28;19909;-82
2022/03/24 10:44:06;;;;;;;;;;;41.90;99.90;;;;;;5050476;28;19916;-83
2022/03/24 10:46:33;;;;;;;;;;;42.20;99.90;;;;;;5055961;28;20428;-83
2022/03/24 10:49:13;;;;;;;;;;;42.50;99.90;;;;;;5053594;28;19919;-85
2022/03/24 10:51:41;;;;;;;;;;;42.70;99.90;;;;;;5054483;28;19908;-81
2022/03/24 10:54:20;;;;;;;;;;;42.90;99.90;;;;;;5052272;28;19916;-82
2022/03/24 10:56:57;;;;;;;;;;;42.70;99.90;;;;;;5052435;28;19916;-82
2022/03/24 10:59:25;;;;;;;;;;;42.10;99.90;;;;;;5049826;28;19921;-82
2022/03/24 11:01:53;;;;;;;;;;;41.90;99.90;;;;;;5049731;28;19995;-82
2022/03/24 11:04:19;;;;;;;;;;;42.00;99.90;;;;;;5057901;28;19913;-82
2022/03/24 11:06:48;;;;;;;;;;;41.70;99.90;;;;;;5058880;28;19908;-85
2022/03/24 11:09:20;;;;;;;;;;;41.70;99.90;;;;;;5056877;28;19919;-82
2022/03/24 11:11:46;;;;;;;;;;;41.70;99.90;;;;;;5052502;28;19927;-83
2022/03/24 11:14:11;;;;;;;;;;;41.10;99.90;;;;;;5050408;28;19908;-82
2022/03/24 11:16:37;;;;;;;;;;;41.00;99.90;;;;;;5050827;28;19914;-84
2022/03/24 11:19:12;;;;;;;;;;;40.80;99.90;;;;;;5050937;28;20013;-82
2022/03/24 11:21:40;;;;;;;;;;;40.30;99.90;;;;;;5049966;28;19909;-82
2022/03/24 11:24:05;;;;;;;;;;;40.30;99.90;;;;;;5049078;28;19998;-82
2022/03/24 11:26:31;;;;;;;;;;;39.60;99.90;;;;;;5049692;28;20499;-81
2022/03/24 11:28:57;;;;;;;;;;;39.10;99.90;;;;;;5046423;28;20280;-82
2022/03/24 11:31:31;;;;;;;;;;;39.00;99.90;;;;;;5049009;28;19909;-82
2022/03/24 11:33:58;;;;;;;;;;;39.00;99.90;;;;;;5051648;28;19920;-82
2022/03/24 11:36:24;;;;;;;;;;;38.40;99.90;;;;;;5050688;28;19913;-82
2022/03/24 11:38:51;;;;;;;;;;;37.50;99.90;;;;;;5050759;28;19975;-81
2022/03/24 11:41:34;;;;;;;;;;;37.60;99.90;;;;;;5048116;28;19916;-81
2022/03/24 11:44:06;;;;;;;;;;;37.90;99.90;;;;;;5043987;28;20350;-80
2022/03/24 11:46:34;;;;;;;;;;;38.10;99.90;;;;;;5049616;28;19908;-83
2022/03/24 11:49:16;;;;;;;;;;;38.10;99.90;;;;;;5050897;28;20039;-82
2022/03/24 11:51:43;;;;;;;;;;;37.90;99.90;;;;;;5052511;28;19913;-82
2022/03/24 11:54:09;;;;;;;;;;;38.10;99.90;;;;;;5055439;28;19956;-82
2022/03/24 11:56:35;;;;;;;;;;;37.70;99.90;;;;;;5053210;28;19954;-82
2022/03/24 11:59:00;;;;;;;;;;;37.50;99.90;;;;;;5056721;28;19909;-82
2022/03/24 12:01:32;;;;;;;;;;;37.70;99.90;;;;;;5055069;28;19909;-82
2022/03/24 12:04:00;;;;;;;;;;;37.90;99.90;;;;;;5041786;28;19924;-82
2022/03/24 12:06:41;;;;;;;;;;;37.90;99.90;;;;;;5055243;28;20363;-82
2022/03/24 12:09:08;;;;;;;;;;;37.50;99.90;;;;;;5059107;28;19912;-82
2022/03/24 12:11:33;;;;;;;;;;;37.80;99.90;;;;;;5043739;28;19917;-82
2022/03/24 12:14:03;;;;;;;;;;;37.90;99.90;;;;;;5054533;28;19935;-82
2022/03/24 12:16:29;;;;;;;;;;;37.80;99.90;;;;;;5054188;28;19913;-83
2022/03/24 12:18:54;;;;;;;;;;;37.80;99.90;;;;;;5053220;28;19935;-83
2022/03/24 12:21:23;;;;;;;;;;;37.50;99.90;;;;;;5053320;28;19916;-82
2022/03/24 12:24:04;;;;;;;;;;;37.60;99.90;;;;;;5049938;28;19940;-83
2022/03/24 12:26:30;;;;;;;;;;;37.60;99.90;;;;;;5058631;28;19913;-83
2022/03/24 12:29:11;;;;;;;;;;;37.40;99.90;;;;;;5059947;28;20399;-83
2022/03/24 12:31:55;;;;;;;;;;;37.10;99.90;;;;;;5064605;28;19927;-83
2022/03/24 12:34:24;;;;;;;;;;;36.10;99.90;;;;;;5044240;28;19913;-83
2022/03/24 12:36:49;;;;;;;;;;;35.60;99.90;;;;;;5062617;28;19909;-83
2022/03/24 12:39:31;;;;;;;;;;;35.40;99.90;;;;;;5062456;28;19909;-83
2022/03/24 12:42:17;;;;;;;;;;;35.10;99.90;;;;;;5061375;28;19909;-83
2022/03/24 12:44:49;;;;;;;;;;;35.10;99.90;;;;;;5062433;28;19920;-83
2022/03/24 12:47:35;;;;;;;;;;;34.60;99.90;;;;;;5063020;28;19969;-83
2022/03/24 12:50:06;;;;;;;;;;;34.00;99.90;;;;;;5061009;28;19908;-83
2022/03/24 12:52:48;;;;;;;;;;;34.20;99.90;;;;;;5057812;28;19921;-83
2022/03/24 12:55:20;;;;;;;;;;;34.60;99.90;;;;;;5051860;28;19920;-83
2022/03/24 12:57:58;;;;;;;;;;;34.80;99.90;;;;;;5040914;28;19909;-83
2022/03/24 13:00:29;;;;;;;;;;;34.60;99.90;;;;;;5039920;28;20004;-83
2022/03/24 13:02:55;;;;;;;;;;;34.30;99.90;;;;;;5039754;28;19913;-83
2022/03/24 13:05:24;;;;;;;;;;;33.90;99.90;;;;;;5040778;28;19940;-82
2022/03/24 13:07:52;;;;;;;;;;;33.80;99.90;;;;;;5040187;28;19909;-83
2022/03/24 13:10:17;;;;;;;;;;;33.50;99.90;;;;;;5053965;28;20020;-83
2022/03/24 13:12:44;;;;;;;;;;;33.80;99.90;;;;;;5058464;28;19948;-83
2022/03/24 13:15:21;;;;;;;;;;;34.00;99.90;;;;;;5060123;28;19909;-83
2022/03/24 13:17:48;;;;;;;;;;;34.30;99.90;;;;;;5059538;28;20281;-83
2022/03/24 13:20:14;;;;;;;;;;;33.60;99.90;;;;;;5076322;28;19913;-82
2022/03/24 13:22:40;;;;;;;;;;;33.50;99.90;;;;;;5055457;28;19924;-82
2022/03/24 13:25:10;;;;;;;;;;;32.90;99.90;;;;;;5057913;28;19908;-83
2022/03/24 13:27:44;;;;;;;;;;;32.80;99.90;;;;;;5052467;28;19912;-83
2022/03/24 13:30:10;;;;;;;;;;;32.50;99.90;;;;;;5058569;28;19916;-82
2022/03/24 13:32:37;;;;;;;;;;;32.40;99.90;;;;;;5038076;28;19909;-83
2022/03/24 13:35:04;;;;;;;;;;;32.40;99.90;;;;;;5040940;28;19913;-83
2022/03/24 13:37:37;;;;;;;;;;;32.10;99.90;;;;;;5059046;28;19913;-83
2022/03/24 13:40:04;;;;;;;;;;;31.80;99.90;;;;;;5060525;28;19913;-83
2022/03/24 13:42:29;;;;;;;;;;;31.40;99.90;;;;;;5058918;28;19919;-83
2022/03/24 13:44:55;;;;;;;;;;;31.00;99.90;;;;;;5056559;28;19952;-84
2022/03/24 13:47:23;;;;;;;;;;;30.70;99.90;;;;;;5040740;28;19916;-83
2022/03/24 13:49:52;;;;;;;;;;;30.80;99.90;;;;;;5043619;28;20345;-83
2022/03/24 13:52:36;;;;;;;;;;;30.70;99.90;;;;;;5047022;28;19916;-83
2022/03/24 13:55:05;;;;;;;;;;;30.60;99.90;;;;;;5057883;28;19919;-84
2022/03/24 13:57:31;;;;;;;;;;;29.90;99.90;;;;;;5050452;28;20297;-83
2022/03/24 13:59:57;;;;;;;;;;;29.60;99.90;;;;;;5058344;28;20366;-83
2022/03/24 14:02:27;;;;;;;;;;;29.50;99.90;;;;;;5046616;28;19996;-83
2022/03/24 14:05:22;;;;;;;;;;;29.30;99.90;;;;;;5048234;28;19924;-83
2022/03/24 14:07:54;;;;;;;;;;;29.60;99.90;;;;;;5043878;28;19913;-83
2022/03/24 14:10:20;;;;;;;;;;;29.60;99.90;;;;;;5055511;28;19949;-83
2022/03/24 14:12:49;;;;;;;;;;;29.30;99.90;;;;;;5042388;28;19932;-83
2022/03/24 14:15:21;;;;;;;;;;;29.20;99.90;;;;;;5059269;28;19913;-83
2022/03/24 14:18:07;;;;;;;;;;;29.00;99.90;;;;;;5057780;28;19912;-83
2022/03/24 14:20:42;;;;;;;;;;;28.90;99.90;;;;;;5045578;28;19924;-83
2022/03/24 14:23:08;;;;;;;;;;;29.00;99.90;;;;;;5044616;28;19917;-84
2022/03/24 14:25:34;;;;;;;;;;;28.80;99.90;;;;;;5055115;28;19913;-84